sensor_id;sensor_type;location;lat;lon;timestamp;pressure;altitude;pressure_sealevel;temperature;humidity
72262;BME280;60173;52.112;8.648;2022-09-30T00:01:48;99804.91;;;4.79;95.43
72262;BME280;60173;52.112;8.648;2022-09-30T00:04:17;99804.41;;;4.72;95.72
72262;BME280;60173;52.112;8.648;2022-09-30T00:06:44;99799.53;;;4.74;95.77
72262;BME280;60173;52.112;8.648;2022-09-30T00:09:12;99807.88;;;4.78;95.85
72262;BME280;60173;52.112;8.648;2022-09-30T00:11:39;99808.16;;;4.71;95.88
72262;BME280;60173;52.112;8.648;2022-09-30T00:14:07;99805.44;;;4.76;95.90
72262;BME280;60173;52.112;8.648;2022-09-30T00:16:35;99808.94;;;4.76;95.56
72262;BME280;60173;52.112;8.648;2022-09-30T00:19:02;99807.66;;;4.64;95.19
72262;BME280;60173;52.112;8.648;2022-09-30T00:21:29;99803.09;;;4.54;95.24
72262;BME280;60173;52.112;8.648;2022-09-30T00:23:56;99805.22;;;4.62;95.22
72262;BME280;60173;52.112;8.648;2022-09-30T00:26:23;99809.84;;;4.51;95.08
72262;BME280;60173;52.112;8.648;2022-09-30T00:28:54;99809.88;;;4.41;95.39
72262;BME280;60173;52.112;8.648;2022-09-30T00:31:22;99824.66;;;4.44;95.69
72262;BME280;60173;52.112;8.648;2022-09-30T00:33:49;99821.69;;;4.45;95.73
72262;BME280;60173;52.112;8.648;2022-09-30T00:36:16;99820.88;;;4.50;95.86
72262;BME280;60173;52.112;8.648;2022-09-30T00:38:42;99821.41;;;4.47;95.98
72262;BME280;60173;52.112;8.648;2022-09-30T00:41:08;99824.34;;;4.50;95.86
72262;BME280;60173;52.112;8.648;2022-09-30T00:43:43;99827.31;;;4.54;95.67
72262;BME280;60173;52.112;8.648;2022-09-30T00:46:19;99820.63;;;4.46;95.60
72262;BME280;60173;52.112;8.648;2022-09-30T00:48:50;99837.78;;;4.56;95.52
72262;BME280;60173;52.112;8.648;2022-09-30T00:51:26;99830.31;;;4.37;95.34
72262;BME280;60173;52.112;8.648;2022-09-30T00:53:56;99824.94;;;4.37;95.60
72262;BME280;60173;52.112;8.648;2022-09-30T00:56:29;99832.97;;;4.42;96.04
72262;BME280;60173;52.112;8.648;2022-09-30T00:59:03;99831.91;;;4.48;95.70
72262;BME280;60173;52.112;8.648;2022-09-30T01:01:31;99827.88;;;4.46;95.98
72262;BME280;60173;52.112;8.648;2022-09-30T01:04:00;99832.44;;;4.45;96.18
72262;BME280;60173;52.112;8.648;2022-09-30T01:06:28;99828.44;;;4.43;96.31
72262;BME280;60173;52.112;8.648;2022-09-30T01:08:55;99834.06;;;4.46;96.20
72262;BME280;60173;52.112;8.648;2022-09-30T01:11:21;99834.84;;;4.47;96.28
72262;BME280;60173;52.112;8.648;2022-09-30T01:13:51;99834.56;;;4.53;96.09
72262;BME280;60173;52.112;8.648;2022-09-30T01:21:42;99836.53;;;4.22;95.24
72262;BME280;60173;52.112;8.648;2022-09-30T01:29:59;99830.09;;;4.03;95.53
72262;BME280;60173;52.112;8.648;2022-09-30T01:32:41;99839.50;;;4.00;95.60
72262;BME280;60173;52.112;8.648;2022-09-30T01:35:38;99838.94;;;3.98;95.54
72262;BME280;60173;52.112;8.648;2022-09-30T01:41:00;99840.00;;;4.07;95.64
72262;BME280;60173;52.112;8.648;2022-09-30T01:43:38;99844.59;;;4.07;95.55
72262;BME280;60173;52.112;8.648;2022-09-30T01:48:51;99843.78;;;4.01;95.66
72262;BME280;60173;52.112;8.648;2022-09-30T01:51:37;99839.75;;;3.99;95.60
72262;BME280;60173;52.112;8.648;2022-09-30T01:54:18;99847.00;;;4.03;96.22
72262;BME280;60173;52.112;8.648;2022-09-30T01:56:48;99836.28;;;4.08;96.24
72262;BME280;60173;52.112;8.648;2022-09-30T01:59:27;99835.44;;;4.13;96.37
72262;BME280;60173;52.112;8.648;2022-09-30T02:02:13;99837.06;;;4.14;96.51
72262;BME280;60173;52.112;8.648;2022-09-30T02:05:07;99841.63;;;4.14;96.55
72262;BME280;60173;52.112;8.648;2022-09-30T02:08:04;99848.88;;;4.13;96.48
72262;BME280;60173;52.112;8.648;2022-09-30T02:10:37;99852.13;;;4.20;96.27
72262;BME280;60173;52.112;8.648;2022-09-30T02:13:19;99851.84;;;4.12;96.15
72262;BME280;60173;52.112;8.648;2022-09-30T02:15:53;99848.91;;;4.08;96.18
72262;BME280;60173;52.112;8.648;2022-09-30T02:18:27;99852.41;;;4.08;96.08
72262;BME280;60173;52.112;8.648;2022-09-30T02:20:59;99854.00;;;4.04;96.19
72262;BME280;60173;52.112;8.648;2022-09-30T02:23:31;99858.59;;;3.94;96.08
72262;BME280;60173;52.112;8.648;2022-09-30T02:26:23;99855.06;;;3.98;96.12
72262;BME280;60173;52.112;8.648;2022-09-30T02:28:51;99855.88;;;3.89;96.03
72262;BME280;60173;52.112;8.648;2022-09-30T02:31:21;99859.38;;;3.84;95.98
72262;BME280;60173;52.112;8.648;2022-09-30T02:34:05;99860.69;;;3.81;95.57
72262;BME280;60173;52.112;8.648;2022-09-30T02:36:48;99865.00;;;3.72;95.79
72262;BME280;60173;52.112;8.648;2022-09-30T02:39:24;99868.75;;;3.71;95.91
72262;BME280;60173;52.112;8.648;2022-09-30T02:41:55;99869.31;;;3.73;95.90
72262;BME280;60173;52.112;8.648;2022-09-30T02:44:22;99856.41;;;3.65;95.66
72262;BME280;60173;52.112;8.648;2022-09-30T02:47:11;99867.38;;;3.58;95.83
72262;BME280;60173;52.112;8.648;2022-09-30T02:49:46;99854.50;;;3.60;96.00
72262;BME280;60173;52.112;8.648;2022-09-30T02:57:50;99869.56;;;3.56;95.96
72262;BME280;60173;52.112;8.648;2022-09-30T03:00:19;99870.88;;;3.54;96.04
72262;BME280;60173;52.112;8.648;2022-09-30T03:02:46;99871.69;;;3.54;96.35
72262;BME280;60173;52.112;8.648;2022-09-30T03:05:12;99867.38;;;3.58;96.14
72262;BME280;60173;52.112;8.648;2022-09-30T03:07:39;99880.28;;;3.61;95.98
72262;BME280;60173;52.112;8.648;2022-09-30T03:10:13;99879.78;;;3.65;95.93
72262;BME280;60173;52.112;8.648;2022-09-30T03:30:00;99899.94;;;3.77;96.58
72262;BME280;60173;52.112;8.648;2022-09-30T03:32:53;99900.47;;;3.79;96.46
72262;BME280;60173;52.112;8.648;2022-09-30T03:35:28;99890.50;;;3.70;96.72
72262;BME280;60173;52.112;8.648;2022-09-30T03:38:08;99897.25;;;3.77;96.61
72262;BME280;60173;52.112;8.648;2022-09-30T03:41:14;99894.81;;;3.76;96.57
72262;BME280;60173;52.112;8.648;2022-09-30T03:44:01;99896.97;;;3.74;96.83
72262;BME280;60173;52.112;8.648;2022-09-30T03:46:35;99895.63;;;3.76;97.07
72262;BME280;60173;52.112;8.648;2022-09-30T03:49:09;99890.00;;;3.83;96.97
72262;BME280;60173;52.112;8.648;2022-09-30T03:51:37;99898.59;;;3.85;96.92
72262;BME280;60173;52.112;8.648;2022-09-30T03:54:12;99900.19;;;3.76;96.94
72262;BME280;60173;52.112;8.648;2022-09-30T03:56:39;99907.19;;;3.77;96.90
72262;BME280;60173;52.112;8.648;2022-09-30T03:59:09;99912.56;;;3.77;96.92
72262;BME280;60173;52.112;8.648;2022-09-30T04:01:35;99911.47;;;3.78;96.64
72262;BME280;60173;52.112;8.648;2022-09-30T04:04:02;99912.03;;;3.80;96.67
72262;BME280;60173;52.112;8.648;2022-09-30T04:06:28;99902.88;;;3.81;96.71
72262;BME280;60173;52.112;8.648;2022-09-30T04:08:55;99912.81;;;3.75;96.43
72262;BME280;60173;52.112;8.648;2022-09-30T04:11:21;99913.59;;;3.76;96.46
72262;BME280;60173;52.112;8.648;2022-09-30T04:13:47;99914.13;;;3.73;96.55
72262;BME280;60173;52.112;8.648;2022-09-30T04:16:14;99915.75;;;3.69;96.32
72262;BME280;60173;52.112;8.648;2022-09-30T04:18:40;99922.72;;;3.59;95.96
72262;BME280;60173;52.112;8.648;2022-09-30T04:21:08;99924.00;;;3.47;95.90
72262;BME280;60173;52.112;8.648;2022-09-30T04:23:36;99925.88;;;3.41;95.91
72262;BME280;60173;52.112;8.648;2022-09-30T04:26:05;99928.56;;;3.36;96.05
72262;BME280;60173;52.112;8.648;2022-09-30T04:28:32;99918.31;;;3.28;95.69
72262;BME280;60173;52.112;8.648;2022-09-30T04:31:00;99923.19;;;3.36;95.60
72262;BME280;60173;52.112;8.648;2022-09-30T04:33:27;99926.69;;;3.42;95.75
72262;BME280;60173;52.112;8.648;2022-09-30T04:35:58;99926.69;;;3.36;95.80
72262;BME280;60173;52.112;8.648;2022-09-30T04:38:25;99930.09;;;3.27;95.58
72262;BME280;60173;52.112;8.648;2022-09-30T04:40:52;99930.63;;;3.24;95.59
72262;BME280;60173;52.112;8.648;2022-09-30T04:43:19;99936.84;;;3.24;95.89
72262;BME280;60173;52.112;8.648;2022-09-30T04:45:47;99939.22;;;3.21;95.78
72262;BME280;60173;52.112;8.648;2022-09-30T04:48:14;99943.47;;;3.11;95.46
72262;BME280;60173;52.112;8.648;2022-09-30T04:50:42;99955.56;;;3.14;95.85
72262;BME280;60173;52.112;8.648;2022-09-30T04:53:11;99961.78;;;3.25;95.78
72262;BME280;60173;52.112;8.648;2022-09-30T04:55:37;99958.53;;;3.17;96.01
72262;BME280;60173;52.112;8.648;2022-09-30T04:58:06;99966.53;;;3.12;95.87
72262;BME280;60173;52.112;8.648;2022-09-30T05:00:33;99972.47;;;3.14;96.21
72262;BME280;60173;52.112;8.648;2022-09-30T05:02:59;99970.31;;;3.11;96.06
72262;BME280;60173;52.112;8.648;2022-09-30T05:05:26;99969.22;;;3.07;96.03
72262;BME280;60173;52.112;8.648;2022-09-30T05:07:52;99975.66;;;3.11;95.98
72262;BME280;60173;52.112;8.648;2022-09-30T05:10:19;99981.31;;;3.15;96.22
72262;BME280;60173;52.112;8.648;2022-09-30T05:12:45;99980.31;;;3.21;95.92
72262;BME280;60173;52.112;8.648;2022-09-30T05:15:11;99980.53;;;3.20;96.00
72262;BME280;60173;52.112;8.648;2022-09-30T05:17:38;99983.44;;;3.08;96.12
72262;BME280;60173;52.112;8.648;2022-09-30T05:20:05;99994.94;;;2.98;96.22
72262;BME280;60173;52.112;8.648;2022-09-30T05:22:31;99998.66;;;2.97;96.29
72262;BME280;60173;52.112;8.648;2022-09-30T05:24:58;99999.78;;;3.01;96.57
72262;BME280;60173;52.112;8.648;2022-09-30T05:27:24;99999.25;;;3.09;96.71
72262;BME280;60173;52.112;8.648;2022-09-30T05:29:50;99997.16;;;3.16;96.60
72262;BME280;60173;52.112;8.648;2022-09-30T05:32:17;100003.09;;;3.19;96.54
72262;BME280;60173;52.112;8.648;2022-09-30T05:34:43;100008.53;;;3.34;96.36
72262;BME280;60173;52.112;8.648;2022-09-30T05:37:10;100010.72;;;3.42;96.21
72262;BME280;60173;52.112;8.648;2022-09-30T05:39:36;100010.44;;;3.44;96.19
72262;BME280;60173;52.112;8.648;2022-09-30T05:42:03;100015.06;;;3.53;96.21
72262;BME280;60173;52.112;8.648;2022-09-30T05:44:29;100018.28;;;3.55;96.13
72262;BME280;60173;52.112;8.648;2022-09-30T05:46:55;100021.00;;;3.60;95.93
72262;BME280;60173;52.112;8.648;2022-09-30T05:49:22;100019.91;;;3.61;95.92
72262;BME280;60173;52.112;8.648;2022-09-30T05:51:48;100014.56;;;3.67;95.76
72262;BME280;60173;52.112;8.648;2022-09-30T05:54:15;100025.28;;;3.61;95.76
72262;BME280;60173;52.112;8.648;2022-09-30T05:56:41;100025.84;;;3.63;96.11
72262;BME280;60173;52.112;8.648;2022-09-30T05:59:08;100022.38;;;3.68;96.16
72262;BME280;60173;52.112;8.648;2022-09-30T06:01:35;100028.84;;;3.77;96.25
72262;BME280;60173;52.112;8.648;2022-09-30T06:04:01;100042.34;;;3.93;96.08
72262;BME280;60173;52.112;8.648;2022-09-30T06:06:28;100037.25;;;3.91;96.01
72262;BME280;60173;52.112;8.648;2022-09-30T06:08:54;100039.13;;;4.01;95.92
72262;BME280;60173;52.112;8.648;2022-09-30T06:11:21;100030.00;;;4.07;95.58
72262;BME280;60173;52.112;8.648;2022-09-30T06:13:48;100024.38;;;4.14;95.70
72262;BME280;60173;52.112;8.648;2022-09-30T06:16:14;100025.75;;;4.21;95.43
72262;BME280;60173;52.112;8.648;2022-09-30T06:18:41;100031.16;;;4.32;95.27
72262;BME280;60173;52.112;8.648;2022-09-30T06:21:09;100042.19;;;4.40;95.00
72262;BME280;60173;52.112;8.648;2022-09-30T06:23:37;100034.09;;;4.45;94.80
72262;BME280;60173;52.112;8.648;2022-09-30T06:26:05;100046.78;;;4.55;94.52
72262;BME280;60173;52.112;8.648;2022-09-30T06:28:32;100043.25;;;4.60;94.33
72262;BME280;60173;52.112;8.648;2022-09-30T06:30:58;100048.13;;;4.78;94.11
72262;BME280;60173;52.112;8.648;2022-09-30T06:33:25;100050.28;;;4.81;93.83
72262;BME280;60173;52.112;8.648;2022-09-30T06:35:51;100050.25;;;4.91;93.34
72262;BME280;60173;52.112;8.648;2022-09-30T06:38:17;100049.16;;;5.08;93.09
72262;BME280;60173;52.112;8.648;2022-09-30T06:40:44;100049.16;;;5.18;92.63
72262;BME280;60173;52.112;8.648;2022-09-30T06:43:11;100059.34;;;5.31;92.44
72262;BME280;60173;52.112;8.648;2022-09-30T06:45:37;100057.16;;;5.49;91.83
72262;BME280;60173;52.112;8.648;2022-09-30T06:48:04;100055.50;;;5.63;91.38
72262;BME280;60173;52.112;8.648;2022-09-30T06:50:31;100049.47;;;5.92;91.04
72262;BME280;60173;52.112;8.648;2022-09-30T06:52:59;100043.78;;;6.03;90.55
72262;BME280;60173;52.112;8.648;2022-09-30T06:55:28;100050.41;;;6.21;90.34
72262;BME280;60173;52.112;8.648;2022-09-30T06:57:55;100052.41;;;6.45;89.49
72262;BME280;60173;52.112;8.648;2022-09-30T07:00:23;100050.91;;;6.68;88.77
72262;BME280;60173;52.112;8.648;2022-09-30T07:02:53;100052.84;;;6.91;87.90
72262;BME280;60173;52.112;8.648;2022-09-30T07:05:19;100050.31;;;7.05;86.47
72262;BME280;60173;52.112;8.648;2022-09-30T07:07:46;100053.53;;;7.07;85.48
72262;BME280;60173;52.112;8.648;2022-09-30T07:10:12;100056.69;;;7.14;85.88
72262;BME280;60173;52.112;8.648;2022-09-30T07:12:39;100053.31;;;7.33;85.30
72262;BME280;60173;52.112;8.648;2022-09-30T07:15:05;100060.53;;;7.37;84.77
72262;BME280;60173;52.112;8.648;2022-09-30T07:17:38;100051.47;;;7.52;84.75
72262;BME280;60173;52.112;8.648;2022-09-30T07:20:05;100057.91;;;7.56;84.77
72262;BME280;60173;52.112;8.648;2022-09-30T07:22:31;100058.47;;;7.53;84.81
72262;BME280;60173;52.112;8.648;2022-09-30T07:24:59;100057.84;;;7.61;84.66
72262;BME280;60173;52.112;8.648;2022-09-30T07:27:26;100066.41;;;7.68;84.04
72262;BME280;60173;52.112;8.648;2022-09-30T07:29:53;100067.69;;;7.76;84.64
72262;BME280;60173;52.112;8.648;2022-09-30T07:32:36;100067.78;;;7.90;83.79
72262;BME280;60173;52.112;8.648;2022-09-30T07:35:03;100068.22;;;7.97;82.47
72262;BME280;60173;52.112;8.648;2022-09-30T07:37:29;100068.13;;;8.07;82.19
72262;BME280;60173;52.112;8.648;2022-09-30T07:39:56;100068.41;;;8.25;82.51
72262;BME280;60173;52.112;8.648;2022-09-30T07:42:22;100061.25;;;8.34;82.15
72262;BME280;60173;52.112;8.648;2022-09-30T07:44:49;100075.63;;;8.53;82.70
72262;BME280;60173;52.112;8.648;2022-09-30T07:47:15;100071.56;;;8.70;82.19
72262;BME280;60173;52.112;8.648;2022-09-30T07:49:42;100073.31;;;8.79;80.64
72262;BME280;60173;52.112;8.648;2022-09-30T07:52:10;100077.16;;;8.92;79.76
72262;BME280;60173;52.112;8.648;2022-09-30T07:54:37;100084.50;;;8.92;79.32
72262;BME280;60173;52.112;8.648;2022-09-30T07:57:10;100084.44;;;9.11;78.72
72262;BME280;60173;52.112;8.648;2022-09-30T07:59:39;100082.84;;;9.10;79.12
72262;BME280;60173;52.112;8.648;2022-09-30T08:02:10;100085.88;;;9.22;78.94
72262;BME280;60173;52.112;8.648;2022-09-30T08:04:37;100077.47;;;9.37;78.40
72262;BME280;60173;52.112;8.648;2022-09-30T08:07:09;100096.94;;;9.39;78.45
72262;BME280;60173;52.112;8.648;2022-09-30T08:09:36;100098.78;;;9.58;78.81
72262;BME280;60173;52.112;8.648;2022-09-30T08:12:03;100099.00;;;9.75;78.59
72262;BME280;60173;52.112;8.648;2022-09-30T08:14:29;100093.38;;;9.71;76.74
72262;BME280;60173;52.112;8.648;2022-09-30T08:16:56;100099.28;;;9.73;77.99
72262;BME280;60173;52.112;8.648;2022-09-30T08:19:23;100099.81;;;9.89;77.86
72262;BME280;60173;52.112;8.648;2022-09-30T08:21:51;100091.97;;;10.02;77.11
72262;BME280;60173;52.112;8.648;2022-09-30T08:24:17;100091.72;;;10.12;77.54
72262;BME280;60173;52.112;8.648;2022-09-30T08:26:44;100089.91;;;10.21;76.45
72262;BME280;60173;52.112;8.648;2022-09-30T08:29:10;100097.44;;;10.38;76.44
72262;BME280;60173;52.112;8.648;2022-09-30T08:31:46;100097.38;;;10.29;76.13
72262;BME280;60173;52.112;8.648;2022-09-30T08:34:12;100103.69;;;10.38;76.85
72262;BME280;60173;52.112;8.648;2022-09-30T08:36:39;100107.47;;;10.51;77.07
72262;BME280;60173;52.112;8.648;2022-09-30T08:39:05;100108.50;;;10.78;76.06
72262;BME280;60173;52.112;8.648;2022-09-30T08:47:01;100109.88;;;11.12;74.68
72262;BME280;60173;52.112;8.648;2022-09-30T08:52:14;100108.91;;;11.16;73.64
72262;BME280;60173;52.112;8.648;2022-09-30T08:55:02;100113.84;;;11.37;74.38
72262;BME280;60173;52.112;8.648;2022-09-30T08:57:38;100117.59;;;11.49;73.78
72262;BME280;60173;52.112;8.648;2022-09-30T09:00:13;100111.38;;;11.49;73.69
72262;BME280;60173;52.112;8.648;2022-09-30T09:02:48;100108.94;;;11.47;73.93
72262;BME280;60173;52.112;8.648;2022-09-30T09:05:23;100115.97;;;11.48;73.95
72262;BME280;60173;52.112;8.648;2022-09-30T09:08:23;100109.31;;;11.54;72.42
72262;BME280;60173;52.112;8.648;2022-09-30T09:11:09;100111.44;;;11.66;72.91
72262;BME280;60173;52.112;8.648;2022-09-30T09:14:00;100114.09;;;11.89;72.09
72262;BME280;60173;52.112;8.648;2022-09-30T09:16:38;100109.59;;;11.84;73.50
72262;BME280;60173;52.112;8.648;2022-09-30T09:19:16;100115.72;;;11.90;72.37
72262;BME280;60173;52.112;8.648;2022-09-30T09:21:53;100117.03;;;12.01;72.31
72262;BME280;60173;52.112;8.648;2022-09-30T09:24:29;100109.53;;;12.07;71.07
72262;BME280;60173;52.112;8.648;2022-09-30T09:27:16;100107.28;;;12.09;71.01
72262;BME280;60173;52.112;8.648;2022-09-30T09:30:05;100105.09;;;12.28;69.74
72262;BME280;60173;52.112;8.648;2022-09-30T09:32:34;100096.63;;;12.47;69.85
72262;BME280;60173;52.112;8.648;2022-09-30T09:35:11;100097.28;;;12.61;68.70
72262;BME280;60173;52.112;8.648;2022-09-30T09:40:15;100092.13;;;12.51;68.74
72262;BME280;60173;52.112;8.648;2022-09-30T09:47:56;100092.91;;;12.95;66.78
72262;BME280;60173;52.112;8.648;2022-09-30T09:50:31;100097.72;;;13.07;66.32
72262;BME280;60173;52.112;8.648;2022-09-30T09:56:01;100094.03;;;13.11;65.53
72262;BME280;60173;52.112;8.648;2022-09-30T09:58:27;100098.69;;;13.28;65.43
72262;BME280;60173;52.112;8.648;2022-09-30T10:01:08;100089.97;;;13.44;65.62
72262;BME280;60173;52.112;8.648;2022-09-30T10:03:35;100096.53;;;13.51;65.20
72262;BME280;60173;52.112;8.648;2022-09-30T10:06:10;100088.78;;;13.53;64.07
72262;BME280;60173;52.112;8.648;2022-09-30T10:08:39;100096.53;;;13.51;63.05
72262;BME280;60173;52.112;8.648;2022-09-30T10:11:20;100106.63;;;13.42;63.72
72262;BME280;60173;52.112;8.648;2022-09-30T10:13:47;100098.16;;;13.35;64.71
72262;BME280;60173;52.112;8.648;2022-09-30T10:16:33;100092.94;;;13.60;64.12
72262;BME280;60173;52.112;8.648;2022-09-30T10:19:00;100096.94;;;13.62;64.57
72262;BME280;60173;52.112;8.648;2022-09-30T10:21:34;100092.63;;;13.61;63.40
72262;BME280;60173;52.112;8.648;2022-09-30T10:24:18;100106.69;;;13.81;63.62
72262;BME280;60173;52.112;8.648;2022-09-30T10:26:51;100094.28;;;13.92;62.69
72262;BME280;60173;52.112;8.648;2022-09-30T10:29:30;100091.69;;;13.95;62.38
72262;BME280;60173;52.112;8.648;2022-09-30T10:31:58;100093.66;;;14.16;62.92
72262;BME280;60173;52.112;8.648;2022-09-30T10:34:37;100092.06;;;14.36;61.36
72262;BME280;60173;52.112;8.648;2022-09-30T10:39:41;100092.09;;;14.57;59.57
72262;BME280;60173;52.112;8.648;2022-09-30T10:42:17;100095.03;;;14.52;60.10
72262;BME280;60173;52.112;8.648;2022-09-30T10:44:54;100097.91;;;14.55;59.51
72262;BME280;60173;52.112;8.648;2022-09-30T10:47:23;100094.16;;;14.60;59.31
72262;BME280;60173;52.112;8.648;2022-09-30T10:49:54;100098.59;;;14.43;58.31
72262;BME280;60173;52.112;8.648;2022-09-30T10:52:27;100096.78;;;14.56;58.66
72262;BME280;60173;52.112;8.648;2022-09-30T10:54:56;100094.50;;;14.58;58.08
72262;BME280;60173;52.112;8.648;2022-09-30T10:57:25;100096.50;;;14.70;58.71
72262;BME280;60173;52.112;8.648;2022-09-30T11:02:45;100094.50;;;14.79;57.95
72262;BME280;60173;52.112;8.648;2022-09-30T11:05:27;100091.81;;;14.91;58.28
72262;BME280;60173;52.112;8.648;2022-09-30T11:08:04;100091.53;;;15.05;57.92
72262;BME280;60173;52.112;8.648;2022-09-30T11:21:11;100088.72;;;15.26;54.90
72262;BME280;60173;52.112;8.648;2022-09-30T11:23:47;100090.28;;;15.15;55.57
72262;BME280;60173;52.112;8.648;2022-09-30T11:26:42;100088.31;;;15.03;56.66
72262;BME280;60173;52.112;8.648;2022-09-30T11:32:16;100073.88;;;15.15;55.14
72262;BME280;60173;52.112;8.648;2022-09-30T11:35:10;100074.25;;;15.26;55.63
72262;BME280;60173;52.112;8.648;2022-09-30T11:37:45;100075.63;;;15.32;57.10
72262;BME280;60173;52.112;8.648;2022-09-30T11:43:26;100068.47;;;15.52;55.79
72262;BME280;60173;52.112;8.648;2022-09-30T11:54:57;100069.19;;;15.15;56.95
72262;BME280;60173;52.112;8.648;2022-09-30T12:00:17;100064.84;;;15.48;54.82
72262;BME280;60173;52.112;8.648;2022-09-30T12:02:50;100069.28;;;15.65;56.64
72262;BME280;60173;52.112;8.648;2022-09-30T12:05:28;100070.34;;;15.72;56.16
72262;BME280;60173;52.112;8.648;2022-09-30T12:08:01;100073.88;;;15.85;55.94
72262;BME280;60173;52.112;8.648;2022-09-30T12:10:40;100077.31;;;15.94;53.54
72262;BME280;60173;52.112;8.648;2022-09-30T12:13:13;100082.41;;;16.08;54.30
72262;BME280;60173;52.112;8.648;2022-09-30T12:15:43;100084.25;;;16.04;53.48
72262;BME280;60173;52.112;8.648;2022-09-30T12:18:16;100083.59;;;15.82;54.40
72262;BME280;60173;52.112;8.648;2022-09-30T12:20:50;100083.13;;;15.93;55.40
72262;BME280;60173;52.112;8.648;2022-09-30T12:25:56;100075.78;;;16.21;56.07
72262;BME280;60173;52.112;8.648;2022-09-30T12:28:35;100062.69;;;16.55;53.89
72262;BME280;60173;52.112;8.648;2022-09-30T12:37:23;100066.06;;;16.77;51.20
72262;BME280;60173;52.112;8.648;2022-09-30T12:42:48;100059.91;;;16.67;52.17
72262;BME280;60173;52.112;8.648;2022-09-30T12:48:12;100058.19;;;16.35;51.14
72262;BME280;60173;52.112;8.648;2022-09-30T12:50:47;100057.53;;;16.13;50.58
72262;BME280;60173;52.112;8.648;2022-09-30T12:53:27;100052.53;;;16.15;51.34
72262;BME280;60173;52.112;8.648;2022-09-30T12:56:01;100054.34;;;16.64;50.93
72262;BME280;60173;52.112;8.648;2022-09-30T12:58:30;100057.06;;;16.23;48.87
72262;BME280;60173;52.112;8.648;2022-09-30T13:01:45;100053.34;;;15.91;51.68
72262;BME280;60173;52.112;8.648;2022-09-30T13:06:25;100042.69;;;15.28;52.71
72262;BME280;60173;52.112;8.648;2022-09-30T13:19:45;100034.75;;;14.69;57.50
72262;BME280;60173;52.112;8.648;2022-09-30T13:27:34;100022.38;;;15.42;54.42
72262;BME280;60173;52.112;8.648;2022-09-30T13:41:05;100015.88;;;16.08;54.14
72262;BME280;60173;52.112;8.648;2022-09-30T13:44:07;100014.03;;;16.24;52.17
72262;BME280;60173;52.112;8.648;2022-09-30T13:46:39;100018.03;;;16.26;51.76
72262;BME280;60173;52.112;8.648;2022-09-30T13:49:39;100005.44;;;16.38;51.02
72262;BME280;60173;52.112;8.648;2022-09-30T13:52:20;100005.56;;;16.29;51.50
72262;BME280;60173;52.112;8.648;2022-09-30T13:54:49;99999.78;;;16.18;51.22
72262;BME280;60173;52.112;8.648;2022-09-30T13:57:27;100000.22;;;16.20;51.59
72262;BME280;60173;52.112;8.648;2022-09-30T14:06:07;99985.78;;;16.36;50.75
72262;BME280;60173;52.112;8.648;2022-09-30T14:08:42;99976.47;;;16.24;50.92
72262;BME280;60173;52.112;8.648;2022-09-30T14:14:17;99988.22;;;15.72;50.42
72262;BME280;60173;52.112;8.648;2022-09-30T14:19:54;99979.53;;;15.46;50.64
72262;BME280;60173;52.112;8.648;2022-09-30T14:22:25;99986.81;;;15.29;50.37
72262;BME280;60173;52.112;8.648;2022-09-30T14:24:52;99985.13;;;15.25;50.44
72262;BME280;60173;52.112;8.648;2022-09-30T14:27:41;99980.44;;;15.50;50.56
72262;BME280;60173;52.112;8.648;2022-09-30T14:30:19;99986.84;;;15.78;50.50
72262;BME280;60173;52.112;8.648;2022-09-30T14:33:08;99980.41;;;15.99;49.99
72262;BME280;60173;52.112;8.648;2022-09-30T14:35:37;99971.03;;;16.12;49.67
72262;BME280;60173;52.112;8.648;2022-09-30T14:38:18;99971.84;;;16.00;50.45
72262;BME280;60173;52.112;8.648;2022-09-30T14:40:51;99976.31;;;15.93;50.61
72262;BME280;60173;52.112;8.648;2022-09-30T14:43:21;99969.72;;;15.81;51.28
72262;BME280;60173;52.112;8.648;2022-09-30T14:45:55;99969.06;;;15.48;50.69
72262;BME280;60173;52.112;8.648;2022-09-30T14:48:25;99980.56;;;15.29;52.49
72262;BME280;60173;52.112;8.648;2022-09-30T14:50:59;99974.50;;;15.23;51.13
72262;BME280;60173;52.112;8.648;2022-09-30T14:53:32;99966.97;;;15.08;51.24
72262;BME280;60173;52.112;8.648;2022-09-30T14:56:00;99975.41;;;15.15;50.68
72262;BME280;60173;52.112;8.648;2022-09-30T14:58:38;99970.19;;;15.22;50.00
72262;BME280;60173;52.112;8.648;2022-09-30T15:01:14;99973.13;;;15.17;49.30
72262;BME280;60173;52.112;8.648;2022-09-30T15:03:47;99969.50;;;15.25;50.04
72262;BME280;60173;52.112;8.648;2022-09-30T15:06:25;99974.72;;;15.18;49.94
72262;BME280;60173;52.112;8.648;2022-09-30T15:09:01;99972.22;;;15.13;51.24
72262;BME280;60173;52.112;8.648;2022-09-30T15:11:29;99967.88;;;15.24;50.21
72262;BME280;60173;52.112;8.648;2022-09-30T15:14:27;99970.97;;;15.23;50.70
72262;BME280;60173;52.112;8.648;2022-09-30T15:16:56;99968.56;;;15.09;51.06
72262;BME280;60173;52.112;8.648;2022-09-30T15:19:33;99969.59;;;15.04;52.58
72262;BME280;60173;52.112;8.648;2022-09-30T15:22:10;99970.03;;;15.06;53.34
72262;BME280;60173;52.112;8.648;2022-09-30T15:24:38;99960.34;;;15.09;54.05
72262;BME280;60173;52.112;8.648;2022-09-30T15:27:09;99963.44;;;15.07;53.84
72262;BME280;60173;52.112;8.648;2022-09-30T15:30:00;99950.66;;;14.99;53.15
72262;BME280;60173;52.112;8.648;2022-09-30T15:32:30;99950.31;;;15.01;52.64
72262;BME280;60173;52.112;8.648;2022-09-30T15:37:38;99951.31;;;14.84;53.38
72262;BME280;60173;52.112;8.648;2022-09-30T15:40:12;99954.13;;;14.63;54.52
72262;BME280;60173;52.112;8.648;2022-09-30T15:42:43;99949.09;;;14.53;53.16
72262;BME280;60173;52.112;8.648;2022-09-30T15:45:29;99953.09;;;14.55;52.25
72262;BME280;60173;52.112;8.648;2022-09-30T15:50:53;99947.84;;;14.29;54.33
72262;BME280;60173;52.112;8.648;2022-09-30T15:53:24;99948.03;;;14.24;53.84
72262;BME280;60173;52.112;8.648;2022-09-30T15:55:58;99949.38;;;14.18;53.83
72262;BME280;60173;52.112;8.648;2022-09-30T16:03:35;99959.63;;;13.79;55.67
72262;BME280;60173;52.112;8.648;2022-09-30T16:06:09;99959.63;;;13.79;56.07